sensor_id;sensor_type;location;lat;lon;timestamp;pressure;altitude;pressure_sealevel;temperature;humidity
75551;BME280;65071;53.082;18.218;2024-02-21T00:01:58;101698.98;;;6.44;94.72
75551;BME280;65071;53.082;18.218;2024-02-21T00:04:25;101699.84;;;6.45;94.29
75551;BME280;65071;53.082;18.218;2024-02-21T00:06:51;101698.81;;;6.44;94.54
75551;BME280;65071;53.082;18.218;2024-02-21T00:09:18;101699.52;;;6.44;94.19
75551;BME280;65071;53.082;18.218;2024-02-21T00:11:45;101700.33;;;6.46;94.53
75551;BME280;65071;53.082;18.218;2024-02-21T00:14:12;101698.09;;;6.47;94.31
75551;BME280;65071;53.082;18.218;2024-02-21T00:16:39;101696.39;;;6.48;94.46
75551;BME280;65071;53.082;18.218;2024-02-21T00:19:05;101692.73;;;6.50;94.43
75551;BME280;65071;53.082;18.218;2024-02-21T00:21:31;101693.73;;;6.51;94.56
75551;BME280;65071;53.082;18.218;2024-02-21T00:23:57;101692.66;;;6.51;95.15
75551;BME280;65071;53.082;18.218;2024-02-21T00:26:24;101693.88;;;6.51;94.93
75551;BME280;65071;53.082;18.218;2024-02-21T00:28:50;101686.36;;;6.51;94.79
75551;BME280;65071;53.082;18.218;2024-02-21T00:31:17;101685.08;;;6.52;94.79
75551;BME280;65071;53.082;18.218;2024-02-21T00:36:12;101681.42;;;6.53;94.27
75551;BME280;65071;53.082;18.218;2024-02-21T00:38:40;101681.73;;;6.54;94.93
75551;BME280;65071;53.082;18.218;2024-02-21T00:41:06;101680.27;;;6.54;95.05
75551;BME280;65071;53.082;18.218;2024-02-21T00:43:33;101675.00;;;6.55;94.61
75551;BME280;65071;53.082;18.218;2024-02-21T00:45:59;101674.73;;;6.57;94.31
75551;BME280;65071;53.082;18.218;2024-02-21T00:48:26;101672.19;;;6.58;94.20
75551;BME280;65071;53.082;18.218;2024-02-21T00:50:52;101667.48;;;6.58;94.08
75551;BME280;65071;53.082;18.218;2024-02-21T00:53:19;101662.56;;;6.60;94.14
75551;BME280;65071;53.082;18.218;2024-02-21T00:55:45;101658.96;;;6.60;94.31
75551;BME280;65071;53.082;18.218;2024-02-21T00:58:12;101655.82;;;6.59;94.03
75551;BME280;65071;53.082;18.218;2024-02-21T01:00:38;101654.34;;;6.60;94.04
75551;BME280;65071;53.082;18.218;2024-02-21T01:03:05;101652.31;;;6.61;94.08
75551;BME280;65071;53.082;18.218;2024-02-21T01:05:32;101655.73;;;6.60;94.10
75551;BME280;65071;53.082;18.218;2024-02-21T01:07:58;101651.95;;;6.61;93.96
75551;BME280;65071;53.082;18.218;2024-02-21T01:10:25;101651.39;;;6.61;94.05
75551;BME280;65071;53.082;18.218;2024-02-21T01:12:51;101644.38;;;6.62;94.12
75551;BME280;65071;53.082;18.218;2024-02-21T01:15:18;101640.80;;;6.61;93.90
75551;BME280;65071;53.082;18.218;2024-02-21T01:17:44;101632.45;;;6.61;94.03
75551;BME280;65071;53.082;18.218;2024-02-21T01:20:11;101627.35;;;6.60;93.99
75551;BME280;65071;53.082;18.218;2024-02-21T01:22:38;101628.21;;;6.58;94.23
75551;BME280;65071;53.082;18.218;2024-02-21T01:25:04;101628.05;;;6.57;94.20
75551;BME280;65071;53.082;18.218;2024-02-21T01:27:31;101626.40;;;6.58;94.05
75551;BME280;65071;53.082;18.218;2024-02-21T01:29:58;101620.70;;;6.58;93.96
75551;BME280;65071;53.082;18.218;2024-02-21T01:32:24;101620.24;;;6.56;94.27
75551;BME280;65071;53.082;18.218;2024-02-21T01:34:51;101622.27;;;6.56;94.33
75551;BME280;65071;53.082;18.218;2024-02-21T01:37:17;101620.00;;;6.55;94.14
75551;BME280;65071;53.082;18.218;2024-02-21T01:39:44;101615.89;;;6.55;94.52
75551;BME280;65071;53.082;18.218;2024-02-21T01:42:11;101612.85;;;6.55;94.57
75551;BME280;65071;53.082;18.218;2024-02-21T01:44:37;101613.00;;;6.55;94.41
75551;BME280;65071;53.082;18.218;2024-02-21T01:47:05;101608.34;;;6.55;94.46
75551;BME280;65071;53.082;18.218;2024-02-21T01:49:31;101605.42;;;6.56;94.53
75551;BME280;65071;53.082;18.218;2024-02-21T01:52:00;101601.83;;;6.57;94.48
75551;BME280;65071;53.082;18.218;2024-02-21T01:54:30;101600.81;;;6.56;94.78
75551;BME280;65071;53.082;18.218;2024-02-21T01:56:57;101602.90;;;6.54;94.71
75551;BME280;65071;53.082;18.218;2024-02-21T01:59:24;101599.11;;;6.52;94.86
75551;BME280;65071;53.082;18.218;2024-02-21T02:01:53;101597.46;;;6.50;94.52
75551;BME280;65071;53.082;18.218;2024-02-21T02:04:24;101598.25;;;6.49;94.33
75551;BME280;65071;53.082;18.218;2024-02-21T02:06:51;101597.40;;;6.48;94.37
75551;BME280;65071;53.082;18.218;2024-02-21T02:09:18;101595.84;;;6.47;94.18
75551;BME280;65071;53.082;18.218;2024-02-21T02:11:45;101596.24;;;6.47;94.07
75551;BME280;65071;53.082;18.218;2024-02-21T02:14:11;101594.44;;;6.47;94.37
75551;BME280;65071;53.082;18.218;2024-02-21T02:16:40;101589.27;;;6.47;94.37
75551;BME280;65071;53.082;18.218;2024-02-21T02:19:07;101585.71;;;6.47;94.54
75551;BME280;65071;53.082;18.218;2024-02-21T02:21:39;101582.41;;;6.45;94.63
75551;BME280;65071;53.082;18.218;2024-02-21T02:24:06;101579.04;;;6.45;94.42
75551;BME280;65071;53.082;18.218;2024-02-21T02:26:33;101582.22;;;6.46;94.29
75551;BME280;65071;53.082;18.218;2024-02-21T02:29:01;101576.60;;;6.47;94.40
75551;BME280;65071;53.082;18.218;2024-02-21T02:31:29;101576.79;;;6.49;94.53
75551;BME280;65071;53.082;18.218;2024-02-21T02:33:55;101576.00;;;6.50;94.83
75551;BME280;65071;53.082;18.218;2024-02-21T02:36:22;101575.92;;;6.51;94.68
75551;BME280;65071;53.082;18.218;2024-02-21T02:38:49;101577.11;;;6.52;94.79
75551;BME280;65071;53.082;18.218;2024-02-21T02:41:15;101576.17;;;6.53;95.15
75551;BME280;65071;53.082;18.218;2024-02-21T02:43:42;101575.78;;;6.53;95.03
75551;BME280;65071;53.082;18.218;2024-02-21T02:46:08;101568.31;;;6.55;94.97
75551;BME280;65071;53.082;18.218;2024-02-21T02:48:35;101557.52;;;6.56;94.96
75551;BME280;65071;53.082;18.218;2024-02-21T02:51:01;101555.20;;;6.56;95.24
75551;BME280;65071;53.082;18.218;2024-02-21T02:53:27;101552.63;;;6.58;94.75
75551;BME280;65071;53.082;18.218;2024-02-21T02:55:54;101555.98;;;6.58;94.51
75551;BME280;65071;53.082;18.218;2024-02-21T02:58:20;101552.36;;;6.59;94.34
75551;BME280;65071;53.082;18.218;2024-02-21T03:00:46;101546.08;;;6.59;95.09
75551;BME280;65071;53.082;18.218;2024-02-21T03:03:13;101542.13;;;6.62;94.88
75551;BME280;65071;53.082;18.218;2024-02-21T03:05:39;101537.00;;;6.63;95.02
75551;BME280;65071;53.082;18.218;2024-02-21T03:08:06;101536.26;;;6.64;95.33
75551;BME280;65071;53.082;18.218;2024-02-21T03:10:33;101531.89;;;6.62;95.77
75551;BME280;65071;53.082;18.218;2024-02-21T03:13:00;101531.63;;;6.61;95.99
75551;BME280;65071;53.082;18.218;2024-02-21T03:15:26;101530.55;;;6.61;95.84
75551;BME280;65071;53.082;18.218;2024-02-21T03:17:53;101531.38;;;6.62;95.72
75551;BME280;65071;53.082;18.218;2024-02-21T03:20:19;101533.40;;;6.64;95.65
75551;BME280;65071;53.082;18.218;2024-02-21T03:22:45;101533.56;;;6.64;95.58
75551;BME280;65071;53.082;18.218;2024-02-21T03:25:12;101537.38;;;6.66;95.59
75551;BME280;65071;53.082;18.218;2024-02-21T03:27:40;101533.54;;;6.67;95.50
75551;BME280;65071;53.082;18.218;2024-02-21T03:30:06;101528.15;;;6.67;95.73
75551;BME280;65071;53.082;18.218;2024-02-21T03:32:33;101533.25;;;6.68;95.92
75551;BME280;65071;53.082;18.218;2024-02-21T03:35:00;101527.90;;;6.68;95.99
75551;BME280;65071;53.082;18.218;2024-02-21T03:37:27;101526.21;;;6.69;96.04
75551;BME280;65071;53.082;18.218;2024-02-21T03:39:53;101522.05;;;6.70;96.17
75551;BME280;65071;53.082;18.218;2024-02-21T03:42:19;101520.61;;;6.70;95.98
75551;BME280;65071;53.082;18.218;2024-02-21T03:44:46;101522.45;;;6.72;95.82
75551;BME280;65071;53.082;18.218;2024-02-21T03:47:12;101517.50;;;6.74;95.84
75551;BME280;65071;53.082;18.218;2024-02-21T03:49:39;101514.10;;;6.74;95.74
75551;BME280;65071;53.082;18.218;2024-02-21T03:52:05;101513.02;;;6.76;95.64
75551;BME280;65071;53.082;18.218;2024-02-21T03:54:32;101508.27;;;6.77;95.68
75551;BME280;65071;53.082;18.218;2024-02-21T03:56:58;101506.14;;;6.77;95.85
75551;BME280;65071;53.082;18.218;2024-02-21T03:59:25;101504.59;;;6.79;95.77
75551;BME280;65071;53.082;18.218;2024-02-21T04:01:52;101503.86;;;6.79;95.67
75551;BME280;65071;53.082;18.218;2024-02-21T04:04:20;101503.08;;;6.80;95.97
75551;BME280;65071;53.082;18.218;2024-02-21T04:06:48;101499.70;;;6.80;95.85
75551;BME280;65071;53.082;18.218;2024-02-21T04:09:14;101501.07;;;6.81;95.83
75551;BME280;65071;53.082;18.218;2024-02-21T04:11:41;101498.38;;;6.81;95.86
75551;BME280;65071;53.082;18.218;2024-02-21T04:14:07;101495.32;;;6.81;96.04
75551;BME280;65071;53.082;18.218;2024-02-21T04:16:34;101492.27;;;6.81;96.15
75551;BME280;65071;53.082;18.218;2024-02-21T04:19:01;101489.78;;;6.81;96.08
75551;BME280;65071;53.082;18.218;2024-02-21T04:21:28;101486.77;;;6.81;96.08
75551;BME280;65071;53.082;18.218;2024-02-21T04:23:54;101480.06;;;6.82;95.83
75551;BME280;65071;53.082;18.218;2024-02-21T04:26:21;101483.73;;;6.83;95.75
75551;BME280;65071;53.082;18.218;2024-02-21T04:28:47;101479.72;;;6.82;96.14
75551;BME280;65071;53.082;18.218;2024-02-21T04:31:14;101479.05;;;6.81;96.14
75551;BME280;65071;53.082;18.218;2024-02-21T04:33:40;101474.54;;;6.81;96.07
75551;BME280;65071;53.082;18.218;2024-02-21T04:36:07;101470.41;;;6.82;95.83
75551;BME280;65071;53.082;18.218;2024-02-21T04:38:33;101470.88;;;6.83;95.85
75551;BME280;65071;53.082;18.218;2024-02-21T04:41:11;101470.98;;;6.84;95.92
75551;BME280;65071;53.082;18.218;2024-02-21T04:43:38;101469.95;;;6.83;96.13
75551;BME280;65071;53.082;18.218;2024-02-21T04:46:04;101465.41;;;6.82;96.17
75551;BME280;65071;53.082;18.218;2024-02-21T04:48:30;101462.47;;;6.80;96.32
75551;BME280;65071;53.082;18.218;2024-02-21T04:50:56;101462.05;;;6.79;96.47
75551;BME280;65071;53.082;18.218;2024-02-21T04:53:23;101459.43;;;6.78;96.43
75551;BME280;65071;53.082;18.218;2024-02-21T04:55:49;101457.19;;;6.77;96.36
75551;BME280;65071;53.082;18.218;2024-02-21T04:58:15;101454.23;;;6.76;96.55
75551;BME280;65071;53.082;18.218;2024-02-21T05:00:41;101451.08;;;6.75;96.43
75551;BME280;65071;53.082;18.218;2024-02-21T05:03:07;101451.95;;;6.75;96.47
75551;BME280;65071;53.082;18.218;2024-02-21T05:05:34;101451.69;;;6.74;96.73
75551;BME280;65071;53.082;18.218;2024-02-21T05:08:00;101446.98;;;6.75;96.46
75551;BME280;65071;53.082;18.218;2024-02-21T05:10:26;101447.57;;;6.74;96.49
75551;BME280;65071;53.082;18.218;2024-02-21T05:12:52;101445.59;;;6.74;96.59
75551;BME280;65071;53.082;18.218;2024-02-21T05:15:19;101440.96;;;6.74;96.63
75551;BME280;65071;53.082;18.218;2024-02-21T05:17:45;101439.05;;;6.73;96.77
75551;BME280;65071;53.082;18.218;2024-02-21T05:20:12;101438.77;;;6.72;96.79
75551;BME280;65071;53.082;18.218;2024-02-21T05:22:39;101431.52;;;6.71;96.81
75551;BME280;65071;53.082;18.218;2024-02-21T05:25:05;101431.71;;;6.71;96.73
75551;BME280;65071;53.082;18.218;2024-02-21T05:27:32;101424.40;;;6.71;96.66
75551;BME280;65071;53.082;18.218;2024-02-21T05:29:59;101419.14;;;6.72;96.45
75551;BME280;65071;53.082;18.218;2024-02-21T05:32:25;101415.63;;;6.71;96.81
75551;BME280;65071;53.082;18.218;2024-02-21T05:34:52;101411.84;;;6.71;96.62
75551;BME280;65071;53.082;18.218;2024-02-21T05:37:19;101412.02;;;6.71;96.66
75551;BME280;65071;53.082;18.218;2024-02-21T05:39:45;101405.80;;;6.71;96.76
75551;BME280;65071;53.082;18.218;2024-02-21T05:42:12;101406.80;;;6.69;96.80
75551;BME280;65071;53.082;18.218;2024-02-21T05:44:38;101406.33;;;6.69;96.81
75551;BME280;65071;53.082;18.218;2024-02-21T05:47:04;101405.84;;;6.68;96.79
75551;BME280;65071;53.082;18.218;2024-02-21T05:49:36;101403.22;;;6.67;96.71
75551;BME280;65071;53.082;18.218;2024-02-21T05:52:04;101405.45;;;6.66;96.72
75551;BME280;65071;53.082;18.218;2024-02-21T05:54:32;101404.44;;;6.65;96.85
75551;BME280;65071;53.082;18.218;2024-02-21T05:56:59;101403.70;;;6.65;96.77
75551;BME280;65071;53.082;18.218;2024-02-21T05:59:25;101400.70;;;6.65;97.20
75551;BME280;65071;53.082;18.218;2024-02-21T06:01:55;101395.73;;;6.65;97.19
75551;BME280;65071;53.082;18.218;2024-02-21T06:04:23;101393.14;;;6.65;97.40
75551;BME280;65071;53.082;18.218;2024-02-21T06:06:50;101390.59;;;6.66;97.28
75551;BME280;65071;53.082;18.218;2024-02-21T06:09:16;101388.64;;;6.66;97.29
75551;BME280;65071;53.082;18.218;2024-02-21T06:11:43;101388.98;;;6.66;97.75
75551;BME280;65071;53.082;18.218;2024-02-21T06:14:09;101387.02;;;6.66;97.66
75551;BME280;65071;53.082;18.218;2024-02-21T06:16:35;101387.02;;;6.66;97.24
75551;BME280;65071;53.082;18.218;2024-02-21T06:19:01;101389.02;;;6.68;97.33
75551;BME280;65071;53.082;18.218;2024-02-21T06:21:31;101391.06;;;6.69;97.32
75551;BME280;65071;53.082;18.218;2024-02-21T06:23:57;101386.10;;;6.71;97.43
75551;BME280;65071;53.082;18.218;2024-02-21T06:26:24;101391.38;;;6.72;97.59
75551;BME280;65071;53.082;18.218;2024-02-21T06:28:50;101389.86;;;6.74;97.46
75551;BME280;65071;53.082;18.218;2024-02-21T06:31:17;101380.48;;;6.75;97.48
75551;BME280;65071;53.082;18.218;2024-02-21T06:33:44;101378.58;;;6.76;97.58
75551;BME280;65071;53.082;18.218;2024-02-21T06:36:11;101385.58;;;6.78;97.42
75551;BME280;65071;53.082;18.218;2024-02-21T06:38:38;101379.10;;;6.78;97.42
75551;BME280;65071;53.082;18.218;2024-02-21T06:41:04;101377.14;;;6.81;97.39
75551;BME280;65071;53.082;18.218;2024-02-21T06:43:30;101372.23;;;6.82;97.45
75551;BME280;65071;53.082;18.218;2024-02-21T06:45:57;101364.98;;;6.84;97.44
75551;BME280;65071;53.082;18.218;2024-02-21T06:48:24;101367.38;;;6.85;97.47
75551;BME280;65071;53.082;18.218;2024-02-21T06:50:50;101365.69;;;6.86;97.39
75551;BME280;65071;53.082;18.218;2024-02-21T06:53:17;101366.80;;;6.88;97.40
75551;BME280;65071;53.082;18.218;2024-02-21T06:55:43;101368.81;;;6.89;97.21
75551;BME280;65071;53.082;18.218;2024-02-21T06:58:09;101365.20;;;6.90;97.11
75551;BME280;65071;53.082;18.218;2024-02-21T07:00:38;101352.88;;;6.89;96.77
75551;BME280;65071;53.082;18.218;2024-02-21T07:03:05;101356.05;;;6.93;97.02
75551;BME280;65071;53.082;18.218;2024-02-21T07:05:32;101354.79;;;6.95;96.81
75551;BME280;65071;53.082;18.218;2024-02-21T07:07:58;101351.06;;;6.97;96.61
75551;BME280;65071;53.082;18.218;2024-02-21T07:10:24;101353.65;;;6.98;96.67
75551;BME280;65071;53.082;18.218;2024-02-21T07:12:50;101352.29;;;6.99;96.58
75551;BME280;65071;53.082;18.218;2024-02-21T07:15:18;101349.15;;;7.01;96.45
75551;BME280;65071;53.082;18.218;2024-02-21T07:17:44;101343.90;;;7.04;96.35
75551;BME280;65071;53.082;18.218;2024-02-21T07:20:11;101337.23;;;7.05;96.46
75551;BME280;65071;53.082;18.218;2024-02-21T07:22:37;101329.42;;;7.06;96.30
75551;BME280;65071;53.082;18.218;2024-02-21T07:25:04;101327.89;;;7.10;96.40
75551;BME280;65071;53.082;18.218;2024-02-21T07:29:59;101325.34;;;7.15;96.35
75551;BME280;65071;53.082;18.218;2024-02-21T07:32:25;101321.09;;;7.19;96.04
75551;BME280;65071;53.082;18.218;2024-02-21T07:34:51;101316.30;;;7.23;96.09
75551;BME280;65071;53.082;18.218;2024-02-21T07:37:18;101313.73;;;7.26;96.10
75551;BME280;65071;53.082;18.218;2024-02-21T07:39:44;101313.95;;;7.30;95.88
75551;BME280;65071;53.082;18.218;2024-02-21T07:42:11;101318.41;;;7.38;95.85
75551;BME280;65071;53.082;18.218;2024-02-21T07:44:37;101319.86;;;7.42;95.60
75551;BME280;65071;53.082;18.218;2024-02-21T07:47:04;101316.52;;;7.46;95.10
75551;BME280;65071;53.082;18.218;2024-02-21T07:49:30;101313.23;;;7.47;95.03
75551;BME280;65071;53.082;18.218;2024-02-21T07:51:57;101320.77;;;7.49;95.25
75551;BME280;65071;53.082;18.218;2024-02-21T07:54:23;101320.04;;;7.49;95.17
75551;BME280;65071;53.082;18.218;2024-02-21T07:56:50;101317.61;;;7.50;95.10
75551;BME280;65071;53.082;18.218;2024-02-21T07:59:16;101312.90;;;7.51;94.79
75551;BME280;65071;53.082;18.218;2024-02-21T08:01:43;101311.52;;;7.53;94.65
75551;BME280;65071;53.082;18.218;2024-02-21T08:04:11;101312.39;;;7.59;94.61
75551;BME280;65071;53.082;18.218;2024-02-21T08:06:37;101308.57;;;7.65;94.59
75551;BME280;65071;53.082;18.218;2024-02-21T08:09:04;101302.64;;;7.67;94.42
75551;BME280;65071;53.082;18.218;2024-02-21T08:11:30;101296.73;;;7.70;94.09
75551;BME280;65071;53.082;18.218;2024-02-21T08:13:56;101290.65;;;7.71;94.04
75551;BME280;65071;53.082;18.218;2024-02-21T08:16:24;101288.11;;;7.72;94.00
75551;BME280;65071;53.082;18.218;2024-02-21T08:18:50;101288.08;;;7.72;94.06
75551;BME280;65071;53.082;18.218;2024-02-21T08:21:16;101281.02;;;7.71;94.31
75551;BME280;65071;53.082;18.218;2024-02-21T08:23:43;101280.01;;;7.70;94.31
75551;BME280;65071;53.082;18.218;2024-02-21T08:26:10;101274.63;;;7.70;94.63
75551;BME280;65071;53.082;18.218;2024-02-21T08:28:37;101265.99;;;7.73;94.84
75551;BME280;65071;53.082;18.218;2024-02-21T08:31:04;101264.06;;;7.79;94.71
75551;BME280;65071;53.082;18.218;2024-02-21T08:33:30;101266.33;;;7.84;94.57
75551;BME280;65071;53.082;18.218;2024-02-21T08:35:57;101268.08;;;7.89;94.50
75551;BME280;65071;53.082;18.218;2024-02-21T08:38:23;101268.33;;;7.93;94.44
75551;BME280;65071;53.082;18.218;2024-02-21T08:40:51;101268.23;;;7.94;94.52
75551;BME280;65071;53.082;18.218;2024-02-21T08:43:17;101265.42;;;7.93;94.38
75551;BME280;65071;53.082;18.218;2024-02-21T08:45:43;101263.96;;;7.94;94.27
75551;BME280;65071;53.082;18.218;2024-02-21T08:48:09;101267.41;;;7.91;93.94
75551;BME280;65071;53.082;18.218;2024-02-21T08:50:36;101268.91;;;7.90;94.25
75551;BME280;65071;53.082;18.218;2024-02-21T08:53:02;101271.63;;;7.90;94.20
75551;BME280;65071;53.082;18.218;2024-02-21T08:55:29;101269.66;;;7.88;94.24
75551;BME280;65071;53.082;18.218;2024-02-21T08:57:55;101268.44;;;7.87;94.27
75551;BME280;65071;53.082;18.218;2024-02-21T09:00:21;101270.80;;;7.85;94.27
75551;BME280;65071;53.082;18.218;2024-02-21T09:02:53;101269.23;;;7.84;94.37
75551;BME280;65071;53.082;18.218;2024-02-21T09:05:22;101267.83;;;7.82;94.22
75551;BME280;65071;53.082;18.218;2024-02-21T09:10:15;101268.41;;;7.76;94.38
75551;BME280;65071;53.082;18.218;2024-02-21T09:12:42;101264.82;;;7.76;94.36
75551;BME280;65071;53.082;18.218;2024-02-21T09:15:08;101257.55;;;7.78;94.26
75551;BME280;65071;53.082;18.218;2024-02-21T09:17:35;101254.79;;;7.79;94.57
75551;BME280;65071;53.082;18.218;2024-02-21T09:20:01;101255.88;;;7.81;94.49
75551;BME280;65071;53.082;18.218;2024-02-21T09:22:29;101253.48;;;7.84;94.37
75551;BME280;65071;53.082;18.218;2024-02-21T09:24:56;101255.66;;;7.88;94.54
75551;BME280;65071;53.082;18.218;2024-02-21T09:27:22;101257.71;;;7.89;94.32
75551;BME280;65071;53.082;18.218;2024-02-21T09:29:48;101252.77;;;7.90;94.32
75551;BME280;65071;53.082;18.218;2024-02-21T09:32:15;101249.62;;;7.92;94.11
75551;BME280;65071;53.082;18.218;2024-02-21T09:34:41;101247.95;;;7.92;94.21
75551;BME280;65071;53.082;18.218;2024-02-21T09:37:08;101242.69;;;7.91;93.94
75551;BME280;65071;53.082;18.218;2024-02-21T09:39:34;101233.70;;;7.91;93.98
75551;BME280;65071;53.082;18.218;2024-02-21T09:42:05;101230.09;;;7.96;93.90
75551;BME280;65071;53.082;18.218;2024-02-21T09:44:36;101232.51;;;8.01;93.95
75551;BME280;65071;53.082;18.218;2024-02-21T09:47:07;101232.48;;;8.06;93.67
75551;BME280;65071;53.082;18.218;2024-02-21T09:49:36;101233.10;;;8.12;93.41
75551;BME280;65071;53.082;18.218;2024-02-21T09:52:06;101232.48;;;8.17;93.20
75551;BME280;65071;53.082;18.218;2024-02-21T09:54:34;101228.05;;;8.23;93.39
75551;BME280;65071;53.082;18.218;2024-02-21T09:57:01;101226.11;;;8.25;93.27
75551;BME280;65071;53.082;18.218;2024-02-21T09:59:28;101226.52;;;8.26;93.63
75551;BME280;65071;53.082;18.218;2024-02-21T10:01:56;101222.63;;;8.28;93.93
75551;BME280;65071;53.082;18.218;2024-02-21T10:04:23;101220.65;;;8.28;93.76
75551;BME280;65071;53.082;18.218;2024-02-21T10:06:49;101215.25;;;8.28;93.52
75551;BME280;65071;53.082;18.218;2024-02-21T10:09:23;101212.92;;;8.26;93.40
75551;BME280;65071;53.082;18.218;2024-02-21T10:11:50;101218.63;;;8.24;93.46
75551;BME280;65071;53.082;18.218;2024-02-21T10:14:17;101219.98;;;8.23;93.85
75551;BME280;65071;53.082;18.218;2024-02-21T10:16:48;101216.46;;;8.22;93.84
75551;BME280;65071;53.082;18.218;2024-02-21T10:19:19;101224.80;;;8.21;94.08
75551;BME280;65071;53.082;18.218;2024-02-21T10:22:03;101223.13;;;8.19;94.03
75551;BME280;65071;53.082;18.218;2024-02-21T10:24:30;101219.83;;;8.21;94.25
75551;BME280;65071;53.082;18.218;2024-02-21T10:27:04;101215.84;;;8.21;94.32
75551;BME280;65071;53.082;18.218;2024-02-21T10:29:31;101212.55;;;8.20;94.39
75551;BME280;65071;53.082;18.218;2024-02-21T10:32:05;101208.38;;;8.18;94.19
75551;BME280;65071;53.082;18.218;2024-02-21T10:34:32;101209.52;;;8.17;94.81
75551;BME280;65071;53.082;18.218;2024-02-21T10:37:03;101207.51;;;8.18;94.52
75551;BME280;65071;53.082;18.218;2024-02-21T10:39:33;101205.83;;;8.17;94.71
75551;BME280;65071;53.082;18.218;2024-02-21T10:44:37;101199.52;;;8.19;94.75
75551;BME280;65071;53.082;18.218;2024-02-21T10:47:09;101200.34;;;8.22;94.68
75551;BME280;65071;53.082;18.218;2024-02-21T10:49:40;101197.65;;;8.20;94.53
75551;BME280;65071;53.082;18.218;2024-02-21T10:52:17;101192.91;;;8.21;94.55
75551;BME280;65071;53.082;18.218;2024-02-21T10:54:53;101189.32;;;8.21;94.61
75551;BME280;65071;53.082;18.218;2024-02-21T10:57:22;101182.86;;;8.26;94.50
75551;BME280;65071;53.082;18.218;2024-02-21T10:59:50;101172.50;;;8.32;94.64
75551;BME280;65071;53.082;18.218;2024-02-21T11:02:17;101169.74;;;8.37;94.46
75551;BME280;65071;53.082;18.218;2024-02-21T11:04:44;101164.19;;;8.43;94.81
75551;BME280;65071;53.082;18.218;2024-02-21T11:07:11;101161.09;;;8.45;94.28
75551;BME280;65071;53.082;18.218;2024-02-21T11:09:38;101156.35;;;8.51;94.25
75551;BME280;65071;53.082;18.218;2024-02-21T11:12:06;101149.56;;;8.55;94.17
75551;BME280;65071;53.082;18.218;2024-02-21T11:14:33;101143.45;;;8.63;93.98
75551;BME280;65071;53.082;18.218;2024-02-21T11:17:03;101141.83;;;8.69;93.70
75551;BME280;65071;53.082;18.218;2024-02-21T11:19:40;101139.45;;;8.70;93.40
75551;BME280;65071;53.082;18.218;2024-02-21T11:22:14;101131.92;;;8.72;93.29
75551;BME280;65071;53.082;18.218;2024-02-21T11:24:41;101129.77;;;8.78;93.54
75551;BME280;65071;53.082;18.218;2024-02-21T11:27:12;101122.08;;;8.86;93.87
75551;BME280;65071;53.082;18.218;2024-02-21T11:29:42;101111.77;;;8.91;93.32
75551;BME280;65071;53.082;18.218;2024-02-21T11:32:15;101113.91;;;8.97;92.96
75551;BME280;65071;53.082;18.218;2024-02-21T11:34:54;101108.94;;;9.03;92.66
75551;BME280;65071;53.082;18.218;2024-02-21T11:37:21;101104.20;;;9.08;92.73
75551;BME280;65071;53.082;18.218;2024-02-21T11:39:50;101100.52;;;9.11;92.44
75551;BME280;65071;53.082;18.218;2024-02-21T11:42:19;101099.63;;;9.13;92.25
75551;BME280;65071;53.082;18.218;2024-02-21T11:44:46;101092.64;;;9.16;92.05
75551;BME280;65071;53.082;18.218;2024-02-21T11:47:14;101081.77;;;9.16;92.02
75551;BME280;65071;53.082;18.218;2024-02-21T11:49:46;101083.98;;;9.15;91.66
75551;BME280;65071;53.082;18.218;2024-02-21T11:52:12;101083.77;;;9.17;91.85
75551;BME280;65071;53.082;18.218;2024-02-21T11:54:41;101082.44;;;9.20;91.69
75551;BME280;65071;53.082;18.218;2024-02-21T11:57:08;101079.08;;;9.20;91.52
75551;BME280;65071;53.082;18.218;2024-02-21T11:59:34;101079.66;;;9.15;91.28
75551;BME280;65071;53.082;18.218;2024-02-21T12:02:01;101082.35;;;9.13;91.55
75551;BME280;65071;53.082;18.218;2024-02-21T12:04:29;101086.81;;;9.10;91.58
75551;BME280;65071;53.082;18.218;2024-02-21T12:06:59;101087.66;;;9.04;90.94
75551;BME280;65071;53.082;18.218;2024-02-21T12:09:26;101088.57;;;9.02;91.11
75551;BME280;65071;53.082;18.218;2024-02-21T12:12:00;101087.45;;;8.98;91.32
75551;BME280;65071;53.082;18.218;2024-02-21T12:14:29;101083.25;;;8.97;91.84
75551;BME280;65071;53.082;18.218;2024-02-21T12:16:58;101075.86;;;8.98;91.67
75551;BME280;65071;53.082;18.218;2024-02-21T12:19:25;101075.26;;;8.96;91.54
75551;BME280;65071;53.082;18.218;2024-02-21T12:21:51;101074.38;;;8.94;91.47
75551;BME280;65071;53.082;18.218;2024-02-21T12:24:22;101066.52;;;8.94;91.72
75551;BME280;65071;53.082;18.218;2024-02-21T12:26:54;101063.36;;;8.89;91.88
75551;BME280;65071;53.082;18.218;2024-02-21T12:29:20;101061.52;;;8.87;91.58
75551;BME280;65071;53.082;18.218;2024-02-21T12:31:47;101063.17;;;8.87;91.98
75551;BME280;65071;53.082;18.218;2024-02-21T12:34:15;101064.75;;;8.87;91.90
75551;BME280;65071;53.082;18.218;2024-02-21T12:36:42;101057.89;;;8.88;91.63
75551;BME280;65071;53.082;18.218;2024-02-21T12:39:10;101058.15;;;8.87;92.13
75551;BME280;65071;53.082;18.218;2024-02-21T12:41:37;101063.27;;;8.86;92.08
75551;BME280;65071;53.082;18.218;2024-02-21T12:44:05;101068.35;;;8.85;92.10
75551;BME280;65071;53.082;18.218;2024-02-21T12:46:35;101064.35;;;8.84;92.32
75551;BME280;65071;53.082;18.218;2024-02-21T12:49:04;101058.80;;;8.80;92.13
75551;BME280;65071;53.082;18.218;2024-02-21T12:51:31;101061.03;;;8.79;92.26
75551;BME280;65071;53.082;18.218;2024-02-21T12:53:58;101057.43;;;8.77;92.05
75551;BME280;65071;53.082;18.218;2024-02-21T12:56:25;101059.95;;;8.77;92.13
75551;BME280;65071;53.082;18.218;2024-02-21T12:58:55;101064.05;;;8.75;92.32
75551;BME280;65071;53.082;18.218;2024-02-21T13:01:22;101064.66;;;8.74;92.65